createdAt,value
2023-04-28T00:01:06.736Z,98003.91
2023-04-28T00:04:09.741Z,98004.06
2023-04-28T00:07:12.680Z,98007.69
2023-04-28T00:10:16.904Z,97989.34
2023-04-28T00:13:19.963Z,97990.28
2023-04-28T00:16:23.127Z,97993.91
2023-04-28T00:19:25.842Z,98001.34
2023-04-28T00:22:28.625Z,97983.75
2023-04-28T00:25:33.182Z,97984.50
2023-04-28T00:28:35.857Z,97982.53
2023-04-28T00:31:38.638Z,97981.91
2023-04-28T00:34:41.472Z,97977.84
2023-04-28T00:37:44.243Z,97979.44
2023-04-28T00:40:48.321Z,97976.47
2023-04-28T00:43:52.246Z,97971.88
2023-04-28T00:46:55.341Z,97975.06
2023-04-28T00:49:58.077Z,97968.63
2023-04-28T00:53:01.586Z,97977.75
2023-04-28T00:56:06.664Z,97958.63
2023-04-28T00:59:09.362Z,97967.81
2023-04-28T01:02:17.257Z,97969.91
2023-04-28T01:05:20.585Z,97965.91
2023-04-28T01:08:24.948Z,97962.06
2023-04-28T01:11:28.999Z,97957.75
2023-04-28T01:14:32.227Z,97962.94
2023-04-28T01:17:35.062Z,97951.34
2023-04-28T01:20:37.878Z,97943.09
2023-04-28T01:23:40.729Z,97935.50
2023-04-28T01:26:45.242Z,97934.13
2023-04-28T01:29:47.902Z,97933.53
2023-04-28T01:32:50.834Z,97926.47
2023-04-28T01:35:58.553Z,97922.69
2023-04-28T01:39:01.480Z,97920.06
2023-04-28T01:42:05.967Z,97924.59
2023-04-28T01:45:09.960Z,97921.09
2023-04-28T01:48:12.753Z,97926.13
2023-04-28T01:51:15.547Z,97917.66
2023-04-28T01:54:18.455Z,97911.69
2023-04-28T01:57:22.765Z,97913.19
2023-04-28T02:00:25.678Z,97914.56
2023-04-28T02:03:29.041Z,97899.75
2023-04-28T02:06:32.007Z,97900.28
2023-04-28T02:09:34.739Z,97891.63
2023-04-28T02:12:38.822Z,97893.81
2023-04-28T02:15:42.137Z,97893.47
2023-04-28T02:18:44.956Z,97896.81
2023-04-28T02:21:47.617Z,97899.22
2023-04-28T02:24:50.639Z,97895.84
2023-04-28T02:27:54.758Z,97890.47
2023-04-28T02:31:05.190Z,97878.19
2023-04-28T02:34:08.038Z,97881.38
2023-04-28T02:37:10.812Z,97866.25
2023-04-28T02:40:14.368Z,97877.41
2023-04-28T02:43:18.348Z,97879.56
2023-04-28T02:46:21.101Z,97889.22
2023-04-28T02:49:24.387Z,97894.84
2023-04-28T02:52:27.116Z,97889.97
2023-04-28T02:55:29.973Z,97895.53
2023-04-28T02:58:34.126Z,97906.50
2023-04-28T03:01:37.142Z,97905.63
2023-04-28T03:04:40.114Z,97911.59
2023-04-28T03:07:42.861Z,97910.28
2023-04-28T03:10:45.707Z,97911.00
2023-04-28T03:13:49.839Z,97907.44
2023-04-28T03:16:52.539Z,97905.81
2023-04-28T03:19:55.327Z,97891.56
2023-04-28T03:22:58.173Z,97873.00
2023-04-28T03:26:01.211Z,97889.16
2023-04-28T03:29:05.249Z,97884.00
2023-04-28T03:32:08.235Z,97870.13
2023-04-28T03:35:11.327Z,97868.22
2023-04-28T03:38:14.005Z,97880.16
2023-04-28T03:41:16.763Z,97883.16
2023-04-28T03:44:21.638Z,97881.94
2023-04-28T03:47:24.309Z,97875.47
2023-04-28T03:50:27.101Z,97865.38
2023-04-28T03:53:30.238Z,97861.50
2023-04-28T03:56:33.108Z,97866.81
2023-04-28T03:59:37.156Z,97856.63
2023-04-28T04:02:39.946Z,97864.19
2023-04-28T04:05:43.108Z,97850.31
2023-04-28T04:08:46.697Z,97861.38
2023-04-28T04:11:49.329Z,97858.97
2023-04-28T04:14:53.451Z,97851.00
2023-04-28T04:17:56.485Z,97850.44
2023-04-28T04:20:59.617Z,97851.03
2023-04-28T04:24:02.492Z,97848.16
2023-04-28T04:27:05.448Z,97851.66
2023-04-28T04:30:10.818Z,97853.44
2023-04-28T04:33:13.523Z,97853.72
2023-04-28T04:36:16.967Z,97837.78
2023-04-28T04:39:19.878Z,97846.56
2023-04-28T04:42:25.027Z,97839.31
2023-04-28T04:45:29.820Z,97850.88
2023-04-28T04:48:32.454Z,97848.09
2023-04-28T04:51:35.151Z,97839.50
2023-04-28T04:54:37.813Z,97842.19
2023-04-28T04:57:40.590Z,97841.69
2023-04-28T05:00:44.749Z,97840.31
2023-04-28T05:03:47.790Z,97838.44
2023-04-28T05:06:50.747Z,97832.53
2023-04-28T05:09:53.463Z,97840.91
2023-04-28T05:12:56.173Z,97840.31
2023-04-28T05:16:00.516Z,97845.50
2023-04-28T05:19:03.418Z,97843.59
2023-04-28T05:22:07.077Z,97846.00
2023-04-28T05:25:10.595Z,97842.81
2023-04-28T05:28:13.435Z,97853.06
2023-04-28T05:31:17.641Z,97848.47
2023-04-28T05:34:20.359Z,97843.31
2023-04-28T05:37:23.424Z,97844.69
2023-04-28T05:40:26.420Z,97848.09
2023-04-28T05:43:29.346Z,97842.69
2023-04-28T05:46:34.312Z,97843.69
2023-04-28T05:49:37.996Z,97845.53
2023-04-28T05:52:40.848Z,97841.72
2023-04-28T05:55:43.683Z,97829.56
2023-04-28T05:58:47.205Z,97829.78
2023-04-28T06:01:51.815Z,97827.59
2023-04-28T06:04:54.645Z,97837.53
2023-04-28T06:07:57.841Z,97832.41
2023-04-28T06:11:00.634Z,97828.31
2023-04-28T06:14:03.357Z,97833.41
2023-04-28T06:17:07.507Z,97838.19
2023-04-28T06:20:13.704Z,97834.13
2023-04-28T06:23:16.492Z,97833.00
2023-04-28T06:26:19.289Z,97837.31
2023-04-28T06:29:23.934Z,97835.31
2023-04-28T06:32:28.043Z,97832.00
2023-04-28T06:35:30.865Z,97823.63
2023-04-28T06:38:33.657Z,97830.81
2023-04-28T06:41:36.678Z,97822.16
2023-04-28T06:44:39.367Z,97819.66
2023-04-28T06:47:43.931Z,97819.03
2023-04-28T06:50:46.974Z,97812.06
2023-04-28T06:53:51.368Z,97817.75
2023-04-28T06:56:54.186Z,97818.34
2023-04-28T06:59:57.113Z,97815.34
2023-04-28T07:03:01.534Z,97805.38
2023-04-28T07:06:05.096Z,97804.50
2023-04-28T07:09:07.747Z,97800.00
2023-04-28T07:12:10.816Z,97796.81
2023-04-28T07:15:13.590Z,97793.63
2023-04-28T07:18:17.761Z,97796.31
2023-04-28T07:21:21.761Z,97800.63
2023-04-28T07:24:27.289Z,97784.34
2023-04-28T07:27:30.207Z,97792.31
2023-04-28T07:30:32.874Z,97788.72
2023-04-28T07:33:36.948Z,97784.31
2023-04-28T07:36:39.619Z,97788.31
2023-04-28T07:39:42.439Z,97788.59
2023-04-28T07:42:45.291Z,97793.41
2023-04-28T07:45:49.558Z,97796.28
2023-04-28T07:48:55.297Z,97791.09
2023-04-28T07:51:58.153Z,97791.47
2023-04-28T07:55:02.445Z,97792.16
2023-04-28T07:58:06.492Z,97805.03
2023-04-28T08:01:09.239Z,97809.31
2023-04-28T08:04:13.831Z,97814.72
2023-04-28T08:07:17.189Z,97818.50
2023-04-28T08:10:19.906Z,97823.69
2023-04-28T08:13:22.610Z,97825.59
2023-04-28T08:16:25.612Z,97839.19
2023-04-28T08:19:29.818Z,97850.97
2023-04-28T08:22:32.560Z,97856.38
2023-04-28T08:25:35.303Z,97854.88
2023-04-28T08:28:38.088Z,97851.97
2023-04-28T08:31:40.812Z,97849.28
2023-04-28T08:34:45.010Z,97854.47
2023-04-28T08:37:49.538Z,97852.97
2023-04-28T08:40:52.679Z,97852.56
2023-04-28T08:43:55.512Z,97853.75
2023-04-28T08:47:02.208Z,97847.28
2023-04-28T08:50:08.591Z,97853.16
2023-04-28T08:53:13.796Z,97866.72
2023-04-28T08:56:18.302Z,97868.91
2023-04-28T08:59:21.934Z,97866.94
2023-04-28T09:02:24.865Z,97868.69
2023-04-28T09:05:29.587Z,97871.88
2023-04-28T09:08:32.340Z,97877.38
2023-04-28T09:11:35.847Z,97875.06
2023-04-28T09:14:40.262Z,97881.75
2023-04-28T09:17:50.250Z,97869.84
2023-04-28T09:21:04.265Z,97878.44
2023-04-28T09:24:08.145Z,97869.75
2023-04-28T09:27:12.183Z,97870.31
2023-04-28T09:30:15.171Z,97873.00
2023-04-28T09:33:17.954Z,97877.22
2023-04-28T09:36:30.727Z,97874.22
2023-04-28T09:39:33.651Z,97873.00
2023-04-28T09:42:38.045Z,97881.47
2023-04-28T09:45:42.421Z,97884.03
2023-04-28T09:48:45.222Z,97886.44
2023-04-28T09:51:50.289Z,97868.72
2023-04-28T09:54:54.701Z,97864.53
2023-04-28T09:58:00.536Z,97871.03
2023-04-28T10:01:04.061Z,97860.94
2023-04-28T10:04:08.222Z,97858.94
2023-04-28T10:07:13.195Z,97859.03
2023-04-28T10:10:17.031Z,97852.59
2023-04-28T10:13:20.622Z,97851.69
2023-04-28T10:16:24.657Z,97852.34
2023-04-28T10:19:27.437Z,97851.56
2023-04-28T10:22:48.979Z,97851.13
2023-04-28T10:25:57.168Z,97841.22
2023-04-28T10:29:00.344Z,97845.22
2023-04-28T10:32:26.543Z,97845.06
2023-04-28T10:35:42.919Z,97847.09
2023-04-28T10:39:12.058Z,97845.97
2023-04-28T10:42:53.170Z,97846.31
2023-04-28T10:46:04.728Z,97853.94
2023-04-28T10:49:08.403Z,97859.03
2023-04-28T10:52:44.485Z,97857.59
2023-04-28T10:56:07.043Z,97853.59
2023-04-28T10:59:28.370Z,97858.56
2023-04-28T11:02:46.149Z,97862.03
2023-04-28T11:06:19.163Z,97866.69
2023-04-28T11:09:49.930Z,97859.19
2023-04-28T11:13:26.174Z,97849.94
2023-04-28T11:16:31.779Z,97852.47
2023-04-28T11:19:36.744Z,97856.75
2023-04-28T11:22:40.018Z,97860.94
2023-04-28T11:25:55.287Z,97855.94
2023-04-28T11:28:58.718Z,97852.13
2023-04-28T11:32:03.507Z,97851.66
2023-04-28T11:35:09.785Z,97850.22
2023-04-28T11:38:12.722Z,97851.19
2023-04-28T11:41:15.581Z,97849.09
2023-04-28T11:44:19.829Z,97840.28
2023-04-28T11:47:34.942Z,97843.13
2023-04-28T11:50:38.114Z,97849.69
2023-04-28T11:53:44.394Z,97829.31
2023-04-28T11:56:47.580Z,97837.75
2023-04-28T11:59:51.380Z,97834.72
2023-04-28T12:02:55.748Z,97839.03
2023-04-28T12:05:59.006Z,97830.59
2023-04-28T12:09:04.564Z,97837.22
2023-04-28T12:12:09.014Z,97843.41
2023-04-28T12:15:12.371Z,97848.69
2023-04-28T12:18:19.469Z,97845.34
2023-04-28T12:21:22.850Z,97839.56
2023-04-28T12:24:26.866Z,97839.44
2023-04-28T12:27:29.711Z,97840.88
2023-04-28T12:30:34.407Z,97847.25
2023-04-28T12:33:39.454Z,97852.72
2023-04-28T12:36:42.212Z,97855.94
2023-04-28T12:39:45.384Z,97864.25
2023-04-28T12:42:48.562Z,97870.19
2023-04-28T12:45:52.955Z,97859.69
2023-04-28T12:48:57.213Z,97863.06
2023-04-28T12:51:59.957Z,97850.50
2023-04-28T12:55:02.729Z,97847.78
2023-04-28T12:58:05.565Z,97837.25
2023-04-28T13:01:08.440Z,97823.53
2023-04-28T13:04:12.713Z,97823.69
2023-04-28T13:07:17.878Z,97833.88
2023-04-28T13:10:21.358Z,97818.44
2023-04-28T13:13:24.079Z,97813.31
2023-04-28T13:16:29.220Z,97822.88
2023-04-28T13:19:34.605Z,97837.50
2023-04-28T13:22:37.336Z,97826.00
2023-04-28T13:25:40.225Z,97814.53
2023-04-28T13:28:43.014Z,97810.47
2023-04-28T13:31:46.291Z,97812.34
2023-04-28T13:34:50.610Z,97816.97
2023-04-28T13:38:01.507Z,97807.16
2023-04-28T13:41:04.427Z,97817.09
2023-04-28T13:44:07.124Z,97820.63
2023-04-28T13:47:11.031Z,97821.44
2023-04-28T13:50:15.164Z,97821.59
2023-04-28T13:53:18.015Z,97812.22
2023-04-28T13:56:21.277Z,97817.81
2023-04-28T13:59:24.083Z,97811.47
2023-04-28T14:02:27.410Z,97802.88
2023-04-28T14:05:39.049Z,97802.22
2023-04-28T14:08:51.376Z,97800.91
2023-04-28T14:11:56.589Z,97785.81
2023-04-28T14:14:59.671Z,97791.38
2023-04-28T14:18:02.862Z,97812.69
2023-04-28T14:21:08.192Z,97793.28
2023-04-28T14:24:11.650Z,97795.38
2023-04-28T14:27:15.193Z,97772.13
2023-04-28T14:30:18.301Z,97788.19
2023-04-28T14:33:21.171Z,97774.34
2023-04-28T14:36:25.318Z,97770.66
2023-04-28T14:39:27.938Z,97770.03
2023-04-28T14:42:32.548Z,97781.34
2023-04-28T14:45:37.195Z,97777.53
2023-04-28T14:48:40.130Z,97776.22
2023-04-28T14:51:44.218Z,97775.09
2023-04-28T14:54:47.404Z,97771.25
2023-04-28T14:57:50.323Z,97779.66
2023-04-28T15:00:53.219Z,97786.34
2023-04-28T15:03:56.154Z,97780.75
2023-04-28T15:07:01.179Z,97777.44
2023-04-28T15:10:03.945Z,97767.25
2023-04-28T15:13:07.511Z,97768.22
2023-04-28T15:16:10.355Z,97764.41
2023-04-28T15:19:13.137Z,97767.91
2023-04-28T15:22:17.282Z,97770.59
2023-04-28T15:25:20.930Z,97766.75
2023-04-28T15:28:23.629Z,97762.91
2023-04-28T15:31:26.974Z,97773.09
2023-04-28T15:34:29.726Z,97767.47
2023-04-28T15:37:44.638Z,97765.16
2023-04-28T15:40:47.378Z,97757.84
2023-04-28T15:43:50.695Z,97760.34
2023-04-28T15:46:53.686Z,97762.31
2023-04-28T15:49:56.442Z,97756.44
2023-04-28T15:53:00.594Z,97760.75
2023-04-28T15:56:04.988Z,97749.13
2023-04-28T15:59:08.500Z,97748.50
2023-04-28T16:02:11.320Z,97739.78
2023-04-28T16:05:14.529Z,97734.97
2023-04-28T16:08:19.502Z,97732.94
2023-04-28T16:11:22.312Z,97733.09
2023-04-28T16:14:25.002Z,97737.06
2023-04-28T16:17:29.010Z,97737.41
2023-04-28T16:20:33.702Z,97743.78
2023-04-28T16:23:37.841Z,97746.66
2023-04-28T16:26:40.710Z,97747.94
2023-04-28T16:29:43.811Z,97739.50
2023-04-28T16:32:46.702Z,97730.59
2023-04-28T16:35:55.693Z,97732.81
2023-04-28T16:39:00.815Z,97736.63
2023-04-28T16:42:05.297Z,97737.94
2023-04-28T16:45:08.982Z,97737.13
2023-04-28T16:48:11.688Z,97742.22
2023-04-28T16:51:14.388Z,97745.91
2023-04-28T16:54:18.637Z,97747.31
2023-04-28T16:57:21.712Z,97756.56
2023-04-28T17:00:24.799Z,97749.88
2023-04-28T17:03:27.745Z,97748.28
2023-04-28T17:06:32.332Z,97737.31
2023-04-28T17:09:36.636Z,97738.91
2023-04-28T17:12:40.798Z,97735.56
2023-04-28T17:15:43.681Z,97741.44
2023-04-28T17:18:46.778Z,97738.13
2023-04-28T17:21:50.076Z,97737.13
2023-04-28T17:24:54.125Z,97741.91
2023-04-28T17:27:57.284Z,97735.53
2023-04-28T17:31:03.468Z,97735.22
2023-04-28T17:34:06.517Z,97740.94
2023-04-28T17:37:09.495Z,97754.19
2023-04-28T17:40:14.588Z,97744.63
2023-04-28T17:43:17.274Z,97742.06
2023-04-28T17:46:20.280Z,97737.78
2023-04-28T17:49:23.275Z,97744.28
2023-04-28T17:52:26.288Z,97741.13
2023-04-28T17:55:30.334Z,97743.66
2023-04-28T17:58:33.741Z,97740.34
2023-04-28T18:01:36.640Z,97752.28
2023-04-28T18:04:39.684Z,97741.28
2023-04-28T18:07:42.828Z,97736.66
2023-04-28T18:10:47.123Z,97749.41
2023-04-28T18:13:49.973Z,97758.94
2023-04-28T18:16:52.701Z,97761.59
2023-04-28T18:19:56.902Z,97764.56
2023-04-28T18:23:00.070Z,97769.16
2023-04-28T18:26:04.347Z,97768.03
2023-04-28T18:29:07.097Z,97777.69
2023-04-28T18:32:12.076Z,97776.25
2023-04-28T18:35:17.225Z,97774.94
2023-04-28T18:38:20.351Z,97780.75
2023-04-28T18:41:24.798Z,97785.03
2023-04-28T18:44:28.378Z,97788.28
2023-04-28T18:47:31.342Z,97792.84
2023-04-28T18:50:34.473Z,97788.06
2023-04-28T18:53:37.646Z,97793.91
2023-04-28T18:56:41.931Z,97793.03
2023-04-28T18:59:44.664Z,97796.84
2023-04-28T19:02:47.559Z,97801.28
2023-04-28T19:05:50.457Z,97814.09
2023-04-28T19:08:53.309Z,97808.22
2023-04-28T19:11:57.428Z,97812.72
2023-04-28T19:15:00.466Z,97812.72
2023-04-28T19:18:03.569Z,97814.44
2023-04-28T19:21:06.500Z,97816.16
2023-04-28T19:24:09.355Z,97819.78
2023-04-28T19:27:13.456Z,97823.19
2023-04-28T19:30:16.778Z,97826.00
2023-04-28T19:33:19.697Z,97830.66
2023-04-28T19:36:24.152Z,97834.09
2023-04-28T19:39:28.758Z,97841.97
2023-04-28T19:42:34.766Z,97834.81
2023-04-28T19:45:37.570Z,97845.91
2023-04-28T19:48:40.882Z,97844.97
2023-04-28T19:51:43.707Z,97843.22
2023-04-28T19:54:46.542Z,97841.00
2023-04-28T19:57:52.262Z,97845.47
2023-04-28T20:00:55.051Z,97849.97
2023-04-28T20:03:58.159Z,97847.59
2023-04-28T20:07:01.912Z,97849.59
2023-04-28T20:10:05.086Z,97852.66
2023-04-28T20:13:09.167Z,97856.25
2023-04-28T20:16:11.994Z,97860.34
2023-04-28T20:19:14.701Z,97865.25
2023-04-28T20:22:17.617Z,97859.06
2023-04-28T20:25:20.297Z,97859.06
2023-04-28T20:28:24.572Z,97863.06
2023-04-28T20:31:27.768Z,97859.25
2023-04-28T20:34:30.676Z,97858.25
2023-04-28T20:37:33.420Z,97852.06
2023-04-28T20:40:37.092Z,97847.47
2023-04-28T20:43:41.502Z,97849.09
2023-04-28T20:46:44.446Z,97847.66
2023-04-28T20:49:47.963Z,97839.78
2023-04-28T20:52:50.739Z,97850.66
2023-04-28T20:55:54.008Z,97850.97
2023-04-28T20:58:58.133Z,97850.78
2023-04-28T21:02:01.374Z,97851.84
2023-04-28T21:05:04.339Z,97864.94
2023-04-28T21:08:07.434Z,97864.31
2023-04-28T21:11:12.845Z,97864.13
2023-04-28T21:14:17.041Z,97870.31
2023-04-28T21:17:19.910Z,97873.00
2023-04-28T21:20:22.907Z,97874.59
2023-04-28T21:23:25.876Z,97870.53
2023-04-28T21:26:28.654Z,97866.94
2023-04-28T21:29:34.463Z,97861.75
2023-04-28T21:32:37.415Z,97870.91
2023-04-28T21:35:40.230Z,97872.03
2023-04-28T21:38:42.969Z,97868.31
2023-04-28T21:41:45.723Z,97870.72
2023-04-28T21:44:50.031Z,97873.41
2023-04-28T21:47:52.792Z,97873.91
2023-04-28T21:50:55.581Z,97871.81
2023-04-28T21:53:58.399Z,97867.81
2023-04-28T21:57:01.905Z,97866.00
2023-04-28T22:00:10.624Z,97861.53
2023-04-28T22:03:15.331Z,97871.13
2023-04-28T22:06:18.739Z,97860.13
2023-04-28T22:09:21.585Z,97867.69
2023-04-28T22:12:24.698Z,97866.59
2023-04-28T22:15:29.819Z,97862.81
2023-04-28T22:18:32.821Z,97864.63
2023-04-28T22:21:35.621Z,97863.53
2023-04-28T22:24:38.928Z,97864.91
2023-04-28T22:27:41.651Z,97858.44
2023-04-28T22:30:46.316Z,97871.38
2023-04-28T22:33:49.210Z,97865.28
2023-04-28T22:36:52.044Z,97856.78
2023-04-28T22:39:54.762Z,97861.97
2023-04-28T22:42:57.421Z,97856.84
2023-04-28T22:46:02.440Z,97859.97
2023-04-28T22:49:05.700Z,97862.22
2023-04-28T22:52:08.444Z,97865.59
2023-04-28T22:55:11.857Z,97870.97
2023-04-28T22:58:14.627Z,97864.09
2023-04-28T23:01:18.785Z,97860.38
2023-04-28T23:04:22.487Z,97869.03
2023-04-28T23:07:25.635Z,97861.25
2023-04-28T23:10:28.351Z,97866.63
2023-04-28T23:13:31.107Z,97855.81
2023-04-28T23:16:35.185Z,97862.16
2023-04-28T23:19:47.351Z,97858.09
2023-04-28T23:22:50.190Z,97865.00
2023-04-28T23:25:52.887Z,97860.13
2023-04-28T23:28:56.318Z,97861.84
2023-04-28T23:32:00.644Z,97868.44
2023-04-28T23:35:03.690Z,97866.66
2023-04-28T23:38:06.864Z,97864.72
2023-04-28T23:41:09.557Z,97856.84
2023-04-28T23:44:12.252Z,97861.41
2023-04-28T23:47:16.435Z,97864.31
2023-04-28T23:50:19.268Z,97855.94
2023-04-28T23:53:22.025Z,97848.34
2023-04-28T23:56:24.687Z,97850.47
2023-04-28T23:59:27.492Z,97845.78
